Time;durP1;ratioP1;P1;durP2;ratioP2;P2;SDS_P1;SDS_P2;PMS_P1;PMS_P2;Temp;Humidity;BMP_temperature;BMP_pressure;BME280_temperature;BME280_humidity;BME280_pressure;Samples;Min_cycle;Max_cycle;Signal;HPM_P1;HPM_P2
2021/10/11 00:01:48;;;;;;;;;;;13.00;99.90;;;;;;4996704;28;19913;-79
2021/10/11 00:04:13;;;;;;;;;;;13.00;99.90;;;;;;5011400;28;19967;-77
2021/10/11 00:06:39;;;;;;;;;;;13.00;99.90;;;;;;4998749;28;19913;-77
2021/10/11 00:09:04;;;;;;;;;;;13.00;99.90;;;;;;4998000;28;20065;-77
2021/10/11 00:11:30;;;;;;;;;;;13.10;99.90;;;;;;4997621;28;19953;-77
2021/10/11 00:13:55;;;;;;;;;;;13.10;99.90;;;;;;5012200;28;19996;-76
2021/10/11 00:16:21;;;;;;;;;;;13.10;99.90;;;;;;4998121;28;20012;-77
2021/10/11 00:18:46;;;;;;;;;;;13.10;99.90;;;;;;5014772;28;20016;-78
2021/10/11 00:21:12;;;;;;;;;;;13.10;99.90;;;;;;4997339;28;19917;-77
2021/10/11 00:23:38;;;;;;;;;;;13.10;99.90;;;;;;5015417;28;19913;-77
2021/10/11 00:26:03;;;;;;;;;;;13.00;99.90;;;;;;4997998;28;20293;-77
2021/10/11 00:28:29;;;;;;;;;;;13.00;99.90;;;;;;5015122;28;19920;-77
2021/10/11 00:30:54;;;;;;;;;;;12.90;99.90;;;;;;4997860;28;20084;-77
2021/10/11 00:33:20;;;;;;;;;;;12.80;99.90;;;;;;4997683;28;19921;-78
2021/10/11 00:35:45;;;;;;;;;;;12.80;99.90;;;;;;4997672;28;19913;-78
2021/10/11 00:38:11;;;;;;;;;;;12.90;99.90;;;;;;5015833;28;19909;-77
2021/10/11 00:40:36;;;;;;;;;;;12.90;99.90;;;;;;5015316;28;19916;-77
2021/10/11 00:43:02;;;;;;;;;;;12.80;99.90;;;;;;4997465;28;20361;-78
2021/10/11 00:45:27;;;;;;;;;;;12.80;99.90;;;;;;5015392;28;20403;-78
2021/10/11 00:47:53;;;;;;;;;;;12.80;99.90;;;;;;5015556;28;19913;-79
2021/10/11 00:50:18;;;;;;;;;;;12.90;99.90;;;;;;4997048;28;19948;-78
2021/10/11 00:52:45;;;;;;;;;;;12.90;99.90;;;;;;4997533;28;19914;-78
2021/10/11 00:55:11;;;;;;;;;;;12.80;99.90;;;;;;4998359;28;19910;-78
2021/10/11 00:57:36;;;;;;;;;;;12.80;99.90;;;;;;4996913;28;20047;-78
2021/10/11 01:00:03;;;;;;;;;;;12.70;99.90;;;;;;5015037;28;19910;-77
2021/10/11 01:02:28;;;;;;;;;;;12.70;99.90;;;;;;4931263;28;1811701;-77
2021/10/11 01:04:54;;;;;;;;;;;12.60;99.90;;;;;;4996508;28;20381;-78
2021/10/11 01:07:19;;;;;;;;;;;12.60;99.90;;;;;;4994999;28;19914;-78
2021/10/11 01:09:45;;;;;;;;;;;12.50;99.90;;;;;;4995022;28;19924;-78
2021/10/11 01:12:10;;;;;;;;;;;12.50;99.90;;;;;;4994482;28;19918;-78
2021/10/11 01:14:36;;;;;;;;;;;12.50;99.90;;;;;;4995105;28;19914;-77
2021/10/11 01:17:01;;;;;;;;;;;12.50;99.90;;;;;;4993253;28;19929;-77
2021/10/11 01:19:27;;;;;;;;;;;12.50;99.90;;;;;;4994475;28;20377;-77
2021/10/11 01:21:52;;;;;;;;;;;12.50;99.90;;;;;;4994656;28;19950;-77
2021/10/11 01:24:18;;;;;;;;;;;12.50;99.90;;;;;;4995764;28;20295;-76
2021/10/11 01:26:44;;;;;;;;;;;12.50;99.90;;;;;;4996015;28;19920;-77
2021/10/11 01:29:11;;;;;;;;;;;12.50;99.90;;;;;;4987581;28;19920;-77
2021/10/11 01:31:36;;;;;;;;;;;12.60;99.90;;;;;;4994721;28;19936;-78
2021/10/11 01:34:02;;;;;;;;;;;12.50;99.90;;;;;;4994059;28;20008;-78
2021/10/11 01:36:28;;;;;;;;;;;12.50;99.90;;;;;;4995705;28;19918;-77
2021/10/11 01:38:54;;;;;;;;;;;12.40;99.90;;;;;;4994401;28;19914;-78
2021/10/11 01:41:20;;;;;;;;;;;12.40;99.90;;;;;;4994237;28;19914;-79
2021/10/11 01:43:45;;;;;;;;;;;12.40;99.90;;;;;;4995588;28;19930;-78
2021/10/11 01:46:11;;;;;;;;;;;12.40;99.90;;;;;;4994684;28;19910;-77
2021/10/11 01:48:36;;;;;;;;;;;12.40;99.90;;;;;;4994325;28;19914;-78
2021/10/11 01:51:02;;;;;;;;;;;12.30;99.90;;;;;;4993852;28;20349;-78
2021/10/11 01:53:27;;;;;;;;;;;12.40;99.90;;;;;;4993400;28;19928;-78
2021/10/11 01:55:53;;;;;;;;;;;12.40;99.90;;;;;;4995889;28;19909;-78
2021/10/11 01:58:18;;;;;;;;;;;12.30;99.90;;;;;;4995411;28;20320;-77
2021/10/11 02:00:44;;;;;;;;;;;12.20;99.90;;;;;;4995447;28;19910;-77
2021/10/11 02:03:10;;;;;;;;;;;12.20;99.90;;;;;;4994085;28;20393;-77
2021/10/11 02:05:35;;;;;;;;;;;12.10;99.90;;;;;;4994841;28;19925;-77
2021/10/11 02:08:01;;;;;;;;;;;12.10;99.90;;;;;;4995649;28;20461;-77
2021/10/11 02:10:26;;;;;;;;;;;12.10;99.90;;;;;;4994211;28;19920;-77
2021/10/11 02:12:52;;;;;;;;;;;12.10;99.90;;;;;;4993798;28;19918;-77
2021/10/11 02:15:17;;;;;;;;;;;12.10;99.90;;;;;;4993777;28;19913;-77
2021/10/11 02:17:43;;;;;;;;;;;12.10;99.90;;;;;;4994175;28;20325;-77
2021/10/11 02:20:09;;;;;;;;;;;12.10;99.90;;;;;;4995449;28;19941;-77
2021/10/11 02:22:34;;;;;;;;;;;12.10;99.90;;;;;;4994393;28;19972;-77
2021/10/11 02:25:00;;;;;;;;;;;12.10;99.90;;;;;;4995998;28;20289;-78
2021/10/11 02:27:26;;;;;;;;;;;12.00;99.90;;;;;;4994516;28;19968;-78
2021/10/11 02:29:51;;;;;;;;;;;11.90;99.90;;;;;;4994078;28;20384;-78
2021/10/11 02:32:17;;;;;;;;;;;11.80;99.90;;;;;;4993778;28;19917;-77
2021/10/11 02:34:42;;;;;;;;;;;11.70;99.90;;;;;;4994961;28;20384;-77
2021/10/11 02:37:08;;;;;;;;;;;11.60;99.90;;;;;;4995132;28;19969;-77
2021/10/11 02:39:33;;;;;;;;;;;11.70;99.90;;;;;;4977320;28;19914;-78
2021/10/11 02:41:59;;;;;;;;;;;11.70;99.90;;;;;;4974754;28;19914;-78
2021/10/11 02:44:24;;;;;;;;;;;11.70;99.90;;;;;;4977937;28;20335;-78
2021/10/11 02:46:50;;;;;;;;;;;11.70;99.90;;;;;;4994033;28;19914;-78
2021/10/11 02:49:15;;;;;;;;;;;11.60;99.90;;;;;;4993085;28;19913;-79
2021/10/11 02:51:41;;;;;;;;;;;11.60;99.90;;;;;;4993931;28;19914;-78
2021/10/11 02:54:06;;;;;;;;;;;11.70;99.90;;;;;;4995731;28;19918;-78
2021/10/11 02:56:32;;;;;;;;;;;11.60;99.90;;;;;;4993847;28;19964;-78
2021/10/11 02:58:57;;;;;;;;;;;11.60;99.90;;;;;;4994809;28;19914;-79
2021/10/11 03:01:23;;;;;;;;;;;11.60;99.90;;;;;;4993940;28;19913;-78
2021/10/11 03:03:48;;;;;;;;;;;11.50;99.90;;;;;;4993980;28;19922;-78
2021/10/11 03:06:14;;;;;;;;;;;11.50;99.90;;;;;;4993203;28;20405;-78
2021/10/11 03:08:39;;;;;;;;;;;11.50;99.90;;;;;;4993513;28;19918;-79
2021/10/11 03:11:05;;;;;;;;;;;11.50;99.90;;;;;;4993513;28;19944;-78
2021/10/11 03:13:30;;;;;;;;;;;11.40;99.90;;;;;;4993664;28;19924;-78
2021/10/11 03:15:56;;;;;;;;;;;11.40;99.90;;;;;;4993602;28;19914;-77
2021/10/11 03:18:21;;;;;;;;;;;11.30;99.90;;;;;;4994287;28;19914;-77
2021/10/11 03:20:48;;;;;;;;;;;11.30;99.90;;;;;;4993986;28;20455;-78
2021/10/11 03:23:13;;;;;;;;;;;11.30;99.90;;;;;;4993439;28;19913;-77
2021/10/11 03:25:39;;;;;;;;;;;11.30;99.90;;;;;;4994262;28;19918;-78
2021/10/11 03:28:04;;;;;;;;;;;11.30;99.90;;;;;;4993119;28;19918;-77
2021/10/11 03:30:31;;;;;;;;;;;11.20;99.90;;;;;;4993358;28;20392;-80
2021/10/11 03:32:56;;;;;;;;;;;11.20;99.90;;;;;;4992146;28;19918;-77
2021/10/11 03:35:23;;;;;;;;;;;11.20;99.90;;;;;;4994372;28;19976;-77
2021/10/11 03:37:49;;;;;;;;;;;11.10;99.90;;;;;;4994519;28;20360;-78
2021/10/11 03:40:14;;;;;;;;;;;11.10;99.90;;;;;;4993646;28;19917;-78
2021/10/11 03:42:40;;;;;;;;;;;11.10;99.90;;;;;;4992967;28;19964;-78
2021/10/11 03:45:06;;;;;;;;;;;11.10;99.90;;;;;;4994690;28;19913;-78
2021/10/11 03:47:31;;;;;;;;;;;11.00;99.90;;;;;;4993189;28;19914;-77
2021/10/11 03:49:57;;;;;;;;;;;10.90;99.90;;;;;;4993372;28;19914;-76
2021/10/11 03:52:22;;;;;;;;;;;10.90;99.90;;;;;;4994510;28;19918;-78
2021/10/11 03:54:48;;;;;;;;;;;10.90;99.90;;;;;;4980533;28;19914;-78
2021/10/11 03:57:13;;;;;;;;;;;10.90;99.90;;;;;;4975110;28;19968;-78
2021/10/11 03:59:39;;;;;;;;;;;10.80;99.90;;;;;;4991354;28;19921;-77
2021/10/11 04:02:04;;;;;;;;;;;10.90;99.90;;;;;;4993359;28;20370;-76
2021/10/11 04:04:32;;;;;;;;;;;10.90;99.90;;;;;;5011940;28;19922;-77
2021/10/11 04:07:02;;;;;;;;;;;11.00;99.90;;;;;;5013685;28;19921;-76
2021/10/11 04:09:29;;;;;;;;;;;11.00;99.90;;;;;;4995869;28;19917;-77
2021/10/11 04:11:55;;;;;;;;;;;11.00;99.90;;;;;;5013549;28;19973;-77
2021/10/11 04:14:24;;;;;;;;;;;11.00;99.90;;;;;;4996028;28;19952;-77
2021/10/11 04:16:50;;;;;;;;;;;11.00;99.90;;;;;;4996908;28;19917;-77
2021/10/11 04:19:16;;;;;;;;;;;11.10;99.90;;;;;;5015283;28;20065;-77
2021/10/11 04:21:42;;;;;;;;;;;11.10;99.90;;;;;;5016638;28;20373;-76
2021/10/11 04:24:09;;;;;;;;;;;11.10;99.90;;;;;;4999545;28;19920;-77
2021/10/11 04:26:34;;;;;;;;;;;11.10;99.90;;;;;;4999480;28;19957;-77
2021/10/11 04:29:00;;;;;;;;;;;11.20;99.90;;;;;;5017015;28;19968;-79
2021/10/11 04:31:25;;;;;;;;;;;11.20;99.90;;;;;;4999446;28;19913;-78
2021/10/11 04:33:51;;;;;;;;;;;11.20;99.90;;;;;;4999241;28;19917;-78
2021/10/11 04:36:19;;;;;;;;;;;11.30;99.90;;;;;;5016581;28;19913;-76
2021/10/11 04:38:44;;;;;;;;;;;11.20;99.90;;;;;;5016593;28;20008;-76
2021/10/11 04:41:10;;;;;;;;;;;11.20;99.90;;;;;;4998673;28;19960;-76
2021/10/11 04:43:35;;;;;;;;;;;11.20;99.90;;;;;;5016325;28;20429;-77
2021/10/11 04:46:01;;;;;;;;;;;11.20;99.90;;;;;;5014736;28;19913;-76
2021/10/11 04:48:26;;;;;;;;;;;11.20;99.90;;;;;;5014208;28;19913;-77
2021/10/11 04:50:52;;;;;;;;;;;11.20;99.90;;;;;;5013930;28;19914;-76
2021/10/11 04:53:17;;;;;;;;;;;11.20;99.90;;;;;;4998669;28;19917;-76
2021/10/11 04:55:43;;;;;;;;;;;11.20;99.90;;;;;;5016442;28;20285;-77
2021/10/11 04:58:08;;;;;;;;;;;11.20;99.90;;;;;;4998150;28;19921;-78
2021/10/11 05:00:35;;;;;;;;;;;11.20;99.90;;;;;;5014281;28;19913;-76
2021/10/11 05:03:00;;;;;;;;;;;11.10;99.90;;;;;;4998018;28;19922;-75
2021/10/11 05:05:26;;;;;;;;;;;11.00;99.90;;;;;;4998019;28;20012;-76
2021/10/11 05:07:51;;;;;;;;;;;11.10;99.90;;;;;;5015312;28;19914;-76
2021/10/11 05:10:17;;;;;;;;;;;11.00;99.90;;;;;;4997697;28;19964;-77
2021/10/11 05:12:42;;;;;;;;;;;11.00;99.90;;;;;;4997580;28;20003;-76
2021/10/11 05:15:08;;;;;;;;;;;11.00;99.90;;;;;;4997921;28;20281;-76
2021/10/11 05:17:35;;;;;;;;;;;10.90;99.90;;;;;;4998173;28;20412;-76
2021/10/11 05:20:02;;;;;;;;;;;10.90;99.90;;;;;;5016030;28;19960;-78
2021/10/11 05:22:27;;;;;;;;;;;10.80;99.90;;;;;;4997764;28;19924;-77
2021/10/11 05:24:53;;;;;;;;;;;10.80;99.90;;;;;;5015883;28;19913;-77
2021/10/11 05:27:19;;;;;;;;;;;10.70;99.90;;;;;;5015668;28;19935;-77
2021/10/11 05:29:45;;;;;;;;;;;10.70;99.90;;;;;;4990525;28;19917;-77
2021/10/11 05:32:10;;;;;;;;;;;10.60;99.90;;;;;;4978730;28;19914;-76
2021/10/11 05:34:36;;;;;;;;;;;10.60;99.90;;;;;;4996124;28;19914;-76
2021/10/11 05:37:03;;;;;;;;;;;10.60;99.90;;;;;;4990762;28;20039;-78
2021/10/11 05:39:29;;;;;;;;;;;10.70;99.90;;;;;;4997428;28;20383;-77
2021/10/11 05:41:55;;;;;;;;;;;10.70;99.90;;;;;;5015561;28;19917;-77
2021/10/11 05:44:20;;;;;;;;;;;10.70;99.90;;;;;;4998102;28;20004;-77
2021/10/11 05:46:47;;;;;;;;;;;10.80;99.90;;;;;;4997811;28;19921;-77
2021/10/11 05:49:13;;;;;;;;;;;10.80;99.90;;;;;;4997173;28;20277;-77
2021/10/11 05:51:39;;;;;;;;;;;10.80;99.90;;;;;;4997758;28;19914;-77
2021/10/11 05:54:05;;;;;;;;;;;10.90;99.90;;;;;;4997982;28;20399;-76
2021/10/11 05:56:31;;;;;;;;;;;10.90;99.90;;;;;;5015267;28;19971;-77
2021/10/11 05:58:56;;;;;;;;;;;10.90;99.90;;;;;;5015309;28;19913;-78
2021/10/11 06:01:22;;;;;;;;;;;11.00;99.90;;;;;;5015485;28;20335;-78
2021/10/11 06:03:47;;;;;;;;;;;11.00;99.90;;;;;;5014823;28;19921;-76
2021/10/11 06:06:13;;;;;;;;;;;11.00;99.90;;;;;;4997597;28;19985;-78
2021/10/11 06:08:38;;;;;;;;;;;11.00;99.90;;;;;;5014978;28;19920;-77
2021/10/11 06:11:04;;;;;;;;;;;11.10;99.90;;;;;;4997364;28;19925;-77
2021/10/11 06:13:30;;;;;;;;;;;11.10;99.90;;;;;;5014640;28;19940;-77
2021/10/11 06:15:55;;;;;;;;;;;11.20;99.90;;;;;;4997367;28;19913;-76
2021/10/11 06:18:21;;;;;;;;;;;11.20;99.90;;;;;;5013411;28;19913;-79
2021/10/11 06:20:46;;;;;;;;;;;11.20;99.90;;;;;;4997038;28;20381;-77
2021/10/11 06:23:13;;;;;;;;;;;11.30;99.90;;;;;;5014308;28;19920;-76
2021/10/11 06:25:40;;;;;;;;;;;11.30;99.90;;;;;;4997326;28;20008;-77
2021/10/11 06:28:05;;;;;;;;;;;11.40;99.90;;;;;;5015061;28;19913;-77
2021/10/11 06:30:31;;;;;;;;;;;11.40;99.90;;;;;;4997646;28;20296;-76
2021/10/11 06:32:56;;;;;;;;;;;11.40;99.90;;;;;;4997201;28;19917;-76
2021/10/11 06:35:22;;;;;;;;;;;11.50;99.90;;;;;;4996719;28;20267;-77
2021/10/11 06:37:49;;;;;;;;;;;11.50;99.90;;;;;;5014407;28;19968;-76
2021/10/11 06:40:15;;;;;;;;;;;11.50;99.90;;;;;;5013892;28;19917;-76
2021/10/11 06:42:40;;;;;;;;;;;11.60;99.90;;;;;;4996958;28;20340;-77
2021/10/11 06:45:06;;;;;;;;;;;11.60;99.90;;;;;;5014071;28;19913;-76
2021/10/11 06:47:32;;;;;;;;;;;11.60;99.90;;;;;;4996317;28;19967;-79
2021/10/11 06:49:57;;;;;;;;;;;11.70;99.90;;;;;;4996371;28;19961;-78
2021/10/11 06:52:23;;;;;;;;;;;11.80;99.90;;;;;;5013853;28;19963;-77
2021/10/11 06:54:49;;;;;;;;;;;11.80;99.90;;;;;;5013845;28;20293;-77
2021/10/11 06:57:14;;;;;;;;;;;11.80;99.90;;;;;;4996292;28;19917;-77
2021/10/11 06:59:42;;;;;;;;;;;11.90;99.90;;;;;;4996308;28;19921;-77
2021/10/11 07:02:07;;;;;;;;;;;11.90;99.90;;;;;;5013753;28;19913;-77
2021/10/11 07:04:33;;;;;;;;;;;11.90;99.90;;;;;;4996017;28;20055;-77
2021/10/11 07:06:59;;;;;;;;;;;12.00;99.90;;;;;;4996247;28;20496;-77
2021/10/11 07:09:24;;;;;;;;;;;12.00;99.90;;;;;;4995352;28;19925;-77
2021/10/11 07:11:50;;;;;;;;;;;12.00;99.90;;;;;;4995981;28;19920;-77
2021/10/11 07:14:16;;;;;;;;;;;12.00;99.90;;;;;;4995950;28;20445;-77
2021/10/11 07:16:42;;;;;;;;;;;12.10;99.90;;;;;;5013143;28;19914;-77
2021/10/11 07:19:11;;;;;;;;;;;12.10;99.90;;;;;;5010426;28;20292;-79
2021/10/11 07:21:36;;;;;;;;;;;12.10;99.90;;;;;;4995498;28;19996;-81
2021/10/11 07:24:02;;;;;;;;;;;12.10;99.90;;;;;;5014894;28;20389;-77
2021/10/11 07:26:27;;;;;;;;;;;12.20;99.90;;;;;;4995924;28;19925;-77
2021/10/11 07:28:53;;;;;;;;;;;12.30;99.90;;;;;;4994558;28;20324;-81
2021/10/11 07:31:19;;;;;;;;;;;12.30;99.90;;;;;;5012964;28;19913;-76
2021/10/11 07:33:44;;;;;;;;;;;12.40;99.90;;;;;;5013191;28;20403;-77
2021/10/11 07:36:10;;;;;;;;;;;12.40;99.90;;;;;;4995851;28;19914;-76
2021/10/11 07:38:36;;;;;;;;;;;12.50;99.90;;;;;;4995834;28;19914;-76
2021/10/11 07:41:01;;;;;;;;;;;12.60;99.90;;;;;;5013202;28;20321;-77
2021/10/11 07:43:27;;;;;;;;;;;12.70;99.90;;;;;;5013152;28;19940;-77
2021/10/11 07:45:52;;;;;;;;;;;12.80;99.90;;;;;;5013181;28;19968;-77
2021/10/11 07:48:18;;;;;;;;;;;12.90;99.90;;;;;;5012455;28;19914;-76
2021/10/11 07:50:43;;;;;;;;;;;13.00;99.90;;;;;;5011864;28;19913;-77
2021/10/11 07:53:09;;;;;;;;;;;13.10;99.90;;;;;;4997935;28;19936;-77
2021/10/11 07:55:34;;;;;;;;;;;13.10;99.90;;;;;;4999092;28;20412;-75
2021/10/11 07:58:01;;;;;;;;;;;13.20;99.90;;;;;;5017628;28;19913;-81
2021/10/11 08:00:27;;;;;;;;;;;13.20;99.90;;;;;;5013650;28;19963;-75
2021/10/11 08:02:52;;;;;;;;;;;13.20;99.90;;;;;;4997557;28;19925;-80
2021/10/11 08:05:18;;;;;;;;;;;13.30;99.90;;;;;;4999548;28;19921;-76
2021/10/11 08:07:44;;;;;;;;;;;13.40;99.90;;;;;;5017200;28;20289;-77
2021/10/11 08:10:10;;;;;;;;;;;13.40;99.90;;;;;;5016755;28;19949;-76
2021/10/11 08:12:36;;;;;;;;;;;13.40;99.90;;;;;;5016941;28;19917;-78
2021/10/11 08:15:02;;;;;;;;;;;13.50;99.90;;;;;;5016063;28;19928;-76
2021/10/11 08:17:28;;;;;;;;;;;13.60;99.90;;;;;;5016388;28;19928;-77
2021/10/11 08:19:53;;;;;;;;;;;13.50;99.90;;;;;;5016294;28;19918;-75
2021/10/11 08:22:22;;;;;;;;;;;13.50;99.90;;;;;;5016676;28;19913;-76
2021/10/11 08:24:48;;;;;;;;;;;13.40;99.90;;;;;;5016353;28;20396;-77
2021/10/11 08:27:16;;;;;;;;;;;13.50;99.90;;;;;;5016180;28;19913;-77
2021/10/11 08:29:51;;;;;;;;;;;13.40;99.90;;;;;;5015735;28;19914;-76
2021/10/11 08:32:17;;;;;;;;;;;13.40;99.90;;;;;;5016257;28;19918;-78
2021/10/11 08:34:42;;;;;;;;;;;13.40;99.90;;;;;;4997892;28;19913;-77
2021/10/11 08:37:08;;;;;;;;;;;13.50;99.90;;;;;;5016280;28;20000;-77
2021/10/11 08:39:35;;;;;;;;;;;13.50;99.90;;;;;;5016169;28;19960;-77
2021/10/11 08:42:02;;;;;;;;;;;13.50;99.90;;;;;;5016032;28;19967;-78
2021/10/11 08:44:27;;;;;;;;;;;13.50;99.90;;;;;;4989746;28;19937;-77
2021/10/11 08:46:53;;;;;;;;;;;13.60;99.90;;;;;;5005354;28;19967;-76
2021/10/11 08:49:19;;;;;;;;;;;13.70;99.90;;;;;;4998198;28;20407;-76
2021/10/11 08:51:44;;;;;;;;;;;13.70;99.90;;;;;;5020103;28;19918;-79
2021/10/11 08:54:10;;;;;;;;;;;13.80;99.90;;;;;;4998662;28;19925;-79
2021/10/11 08:56:35;;;;;;;;;;;13.90;99.90;;;;;;5017440;28;19914;-80
2021/10/11 08:59:01;;;;;;;;;;;13.90;99.90;;;;;;4998696;28;19914;-79
2021/10/11 09:01:26;;;;;;;;;;;14.00;99.90;;;;;;5015854;28;19917;-80
2021/10/11 09:03:52;;;;;;;;;;;14.10;99.90;;;;;;4998369;28;19927;-79
2021/10/11 09:06:19;;;;;;;;;;;14.20;99.90;;;;;;5014750;28;19921;-80
2021/10/11 09:08:44;;;;;;;;;;;14.20;99.90;;;;;;5009856;28;20329;-79
2021/10/11 09:11:11;;;;;;;;;;;14.20;99.90;;;;;;4999157;28;19953;-80
2021/10/11 09:13:40;;;;;;;;;;;14.20;99.90;;;;;;5018518;28;19992;-80
2021/10/11 09:16:07;;;;;;;;;;;14.30;99.90;;;;;;5036144;28;19916;-79
2021/10/11 09:18:34;;;;;;;;;;;14.30;99.90;;;;;;5036532;28;20228;-79
2021/10/11 09:21:00;;;;;;;;;;;14.50;99.90;;;;;;5032988;28;20385;-80
2021/10/11 09:23:29;;;;;;;;;;;14.80;99.90;;;;;;5018482;28;19913;-81
2021/10/11 09:25:57;;;;;;;;;;;15.10;99.90;;;;;;5018678;28;20007;-79
2021/10/11 09:28:26;;;;;;;;;;;15.10;99.90;;;;;;5018148;28;19924;-80
2021/10/11 09:30:52;;;;;;;;;;;15.10;99.90;;;;;;5035733;28;19913;-80
2021/10/11 09:33:18;;;;;;;;;;;14.90;99.90;;;;;;5018151;28;20054;-80
2021/10/11 09:35:45;;;;;;;;;;;14.80;99.90;;;;;;5017821;28;19992;-80
2021/10/11 09:38:18;;;;;;;;;;;14.80;99.90;;;;;;5037095;28;19920;-80
2021/10/11 09:40:44;;;;;;;;;;;14.80;99.90;;;;;;5018820;28;19913;-81
2021/10/11 09:43:10;;;;;;;;;;;14.90;99.90;;;;;;5018553;28;19914;-79
2021/10/11 09:45:36;;;;;;;;;;;14.90;99.90;;;;;;5019634;28;19919;-78
2021/10/11 09:48:06;;;;;;;;;;;15.00;99.90;;;;;;5018592;28;19913;-79
2021/10/11 09:50:32;;;;;;;;;;;15.20;99.90;;;;;;5022893;28;19917;-79
2021/10/11 09:52:57;;;;;;;;;;;15.30;99.90;;;;;;4998421;28;19917;-80
2021/10/11 09:55:23;;;;;;;;;;;15.40;99.90;;;;;;5016374;28;19913;-80
2021/10/11 09:57:48;;;;;;;;;;;15.30;99.90;;;;;;4997855;28;19914;-81
2021/10/11 10:00:14;;;;;;;;;;;15.30;99.90;;;;;;5000714;28;19975;-80
2021/10/11 10:02:41;;;;;;;;;;;15.30;99.90;;;;;;5001003;28;20344;-81
2021/10/11 10:05:08;;;;;;;;;;;15.40;99.90;;;;;;4995994;28;19929;-81
2021/10/11 10:07:35;;;;;;;;;;;15.30;99.90;;;;;;4996521;28;19914;-79
2021/10/11 10:10:04;;;;;;;;;;;15.20;99.90;;;;;;4999001;28;19920;-81
2021/10/11 10:12:29;;;;;;;;;;;15.20;99.90;;;;;;4994543;28;19918;-80
2021/10/11 10:14:57;;;;;;;;;;;15.20;99.90;;;;;;4993939;28;19921;-81
2021/10/11 10:17:34;;;;;;;;;;;15.20;99.90;;;;;;4992172;28;19913;-81
2021/10/11 10:20:09;;;;;;;;;;;15.30;99.90;;;;;;4994700;28;19961;-80
2021/10/11 10:22:47;;;;;;;;;;;15.30;99.90;;;;;;4993784;28;19917;-80
2021/10/11 10:25:12;;;;;;;;;;;15.40;99.90;;;;;;4988935;28;19917;-80
2021/10/11 10:27:40;;;;;;;;;;;15.50;99.90;;;;;;4993785;28;19936;-80
2021/10/11 10:30:17;;;;;;;;;;;15.40;99.90;;;;;;4994420;28;19914;-80
2021/10/11 10:33:02;;;;;;;;;;;15.40;99.90;;;;;;4993662;28;19925;-79
2021/10/11 10:35:29;;;;;;;;;;;15.40;99.90;;;;;;4993429;28;20000;-80
2021/10/11 10:37:55;;;;;;;;;;;15.50;99.90;;;;;;4995917;28;19917;-79
2021/10/11 10:40:24;;;;;;;;;;;15.50;99.90;;;;;;4993860;28;19921;-78
2021/10/11 10:42:49;;;;;;;;;;;15.60;99.90;;;;;;4994653;28;19914;-78
2021/10/11 10:45:15;;;;;;;;;;;15.50;99.90;;;;;;4993692;28;20285;-79
2021/10/11 10:47:41;;;;;;;;;;;15.40;99.90;;;;;;4993792;28;19914;-80
2021/10/11 10:50:10;;;;;;;;;;;15.40;99.90;;;;;;4990928;28;19917;-80
2021/10/11 10:52:35;;;;;;;;;;;15.30;99.90;;;;;;4994480;28;19918;-78
2021/10/11 10:55:01;;;;;;;;;;;15.30;99.90;;;;;;4994416;28;19921;-79
2021/10/11 10:57:29;;;;;;;;;;;15.30;99.90;;;;;;4994367;28;19918;-79
2021/10/11 10:59:56;;;;;;;;;;;15.30;99.90;;;;;;4995057;28;20384;-79
2021/10/11 11:02:24;;;;;;;;;;;15.30;99.90;;;;;;4992243;28;19914;-78
2021/10/11 11:04:56;;;;;;;;;;;15.30;99.90;;;;;;4994645;28;19992;-78
2021/10/11 11:07:26;;;;;;;;;;;15.40;99.90;;;;;;4994985;28;20020;-81
2021/10/11 11:09:52;;;;;;;;;;;15.60;99.90;;;;;;4991481;28;19914;-79
2021/10/11 11:12:26;;;;;;;;;;;15.60;99.90;;;;;;4991419;28;20289;-80
2021/10/11 11:14:52;;;;;;;;;;;15.70;99.90;;;;;;4993896;28;19914;-81
2021/10/11 11:17:26;;;;;;;;;;;15.80;99.90;;;;;;4992995;28;20324;-85
2021/10/11 11:19:51;;;;;;;;;;;15.90;99.90;;;;;;5002338;28;19914;-78
2021/10/11 11:22:26;;;;;;;;;;;16.10;99.90;;;;;;4990373;28;20309;-79
2021/10/11 11:24:51;;;;;;;;;;;16.10;99.90;;;;;;5012971;28;19914;-80
2021/10/11 11:27:26;;;;;;;;;;;16.20;99.90;;;;;;5013682;28;19914;-79
2021/10/11 11:29:53;;;;;;;;;;;16.40;99.90;;;;;;5000732;28;20008;-80
2021/10/11 11:32:18;;;;;;;;;;;16.50;99.90;;;;;;5002069;28;19941;-80
2021/10/11 11:34:44;;;;;;;;;;;16.50;99.90;;;;;;5001473;28;20009;-79
2021/10/11 11:37:10;;;;;;;;;;;16.30;99.90;;;;;;5002882;28;20397;-80
2021/10/11 11:39:36;;;;;;;;;;;16.40;99.90;;;;;;5001041;28;19914;-80
2021/10/11 11:42:03;;;;;;;;;;;16.40;99.90;;;;;;5001475;28;19920;-80
2021/10/11 11:44:28;;;;;;;;;;;16.60;99.90;;;;;;4998508;28;19937;-79
2021/10/11 11:47:07;;;;;;;;;;;16.70;99.90;;;;;;4999914;28;19918;-79
2021/10/11 11:49:35;;;;;;;;;;;16.80;99.90;;;;;;4996947;28;20313;-79
2021/10/11 11:52:04;;;;;;;;;;;16.80;99.90;;;;;;5001690;28;19913;-78
2021/10/11 11:54:29;;;;;;;;;;;16.90;99.90;;;;;;4999820;28;19918;-78
2021/10/11 11:56:55;;;;;;;;;;;17.00;99.90;;;;;;4997962;28;19972;-79
2021/10/11 11:59:21;;;;;;;;;;;17.00;99.90;;;;;;4995677;28;20374;-77
2021/10/11 12:01:46;;;;;;;;;;;16.90;99.90;;;;;;4995650;28;19929;-80
2021/10/11 12:04:12;;;;;;;;;;;16.90;99.90;;;;;;4986938;28;19933;-80
2021/10/11 12:06:37;;;;;;;;;;;16.80;99.90;;;;;;4997774;28;19936;-79
2021/10/11 12:09:03;;;;;;;;;;;16.90;99.90;;;;;;4996278;28;19980;-80
2021/10/11 12:11:30;;;;;;;;;;;16.80;99.90;;;;;;4997216;28;20354;-80
2021/10/11 12:13:57;;;;;;;;;;;16.60;99.90;;;;;;4995918;28;19924;-78
2021/10/11 12:16:24;;;;;;;;;;;16.60;99.90;;;;;;4996539;28;19913;-78
2021/10/11 12:18:54;;;;;;;;;;;16.60;99.90;;;;;;4996261;28;19960;-80
2021/10/11 12:21:25;;;;;;;;;;;16.60;99.90;;;;;;4996832;28;19985;-80
2021/10/11 12:23:51;;;;;;;;;;;16.80;99.90;;;;;;4996838;28;19913;-80
2021/10/11 12:26:18;;;;;;;;;;;16.90;99.90;;;;;;4997240;28;19914;-79
2021/10/11 12:28:54;;;;;;;;;;;16.70;99.90;;;;;;4998163;28;19921;-80
2021/10/11 12:31:20;;;;;;;;;;;16.90;99.90;;;;;;4997875;28;19914;-78
2021/10/11 12:33:46;;;;;;;;;;;17.00;99.90;;;;;;4993951;28;20259;-78
2021/10/11 12:36:12;;;;;;;;;;;17.00;99.90;;;;;;4996458;28;20009;-79
2021/10/11 12:38:39;;;;;;;;;;;16.90;99.90;;;;;;4996981;28;19957;-78
2021/10/11 12:41:09;;;;;;;;;;;16.90;99.90;;;;;;4996237;28;19992;-80
2021/10/11 12:43:34;;;;;;;;;;;16.90;99.90;;;;;;4996277;28;19940;-80
2021/10/11 12:46:11;;;;;;;;;;;16.50;99.90;;;;;;5000074;28;19913;-81
2021/10/11 12:48:48;;;;;;;;;;;16.40;99.90;;;;;;5001599;28;20016;-79
2021/10/11 12:51:22;;;;;;;;;;;16.50;99.90;;;;;;4999581;28;19914;-79
2021/10/11 12:53:58;;;;;;;;;;;16.40;99.90;;;;;;4998720;28;19918;-81
2021/10/11 12:56:24;;;;;;;;;;;16.30;99.90;;;;;;4983904;28;20333;-79
2021/10/11 12:58:55;;;;;;;;;;;16.40;99.90;;;;;;4997161;28;19965;-78
2021/10/11 13:01:20;;;;;;;;;;;16.60;99.90;;;;;;4998849;28;19916;-79
2021/10/11 13:03:46;;;;;;;;;;;16.80;99.90;;;;;;5006673;28;19961;-77
2021/10/11 13:06:18;;;;;;;;;;;16.90;99.90;;;;;;5017035;28;19967;-79
2021/10/11 13:08:44;;;;;;;;;;;16.70;99.90;;;;;;4999794;28;20384;-77
2021/10/11 13:11:09;;;;;;;;;;;16.50;99.90;;;;;;4997829;28;19953;-80
2021/10/11 13:13:35;;;;;;;;;;;16.30;99.90;;;;;;5018134;28;19920;-80
2021/10/11 13:16:03;;;;;;;;;;;16.30;99.90;;;;;;5001973;28;19985;-79
2021/10/11 13:18:29;;;;;;;;;;;16.40;99.90;;;;;;5017387;28;19958;-78
2021/10/11 13:20:54;;;;;;;;;;;16.30;99.90;;;;;;5000139;28;19924;-78
2021/10/11 13:23:20;;;;;;;;;;;16.20;99.90;;;;;;5017603;28;19936;-79
2021/10/11 13:25:45;;;;;;;;;;;16.10;99.90;;;;;;4999255;28;19913;-78
2021/10/11 13:28:11;;;;;;;;;;;15.90;99.90;;;;;;4999144;28;19964;-80
2021/10/11 14:32:56;;;;;;;;;;;15.90;99.90;;;;;;4946448;28;19918;-79
2021/10/11 15:58:11;;;;;;;;;;;14.40;99.90;;;;;;5018605;28;19917;-78
2021/10/11 16:00:24;;;;;;;;;;;14.40;99.90;;;;;;5017580;28;20374;-79
2021/10/11 16:03:04;;;;;;;;;;;14.40;99.90;;;;;;5018117;28;19939;-80
2021/10/11 16:05:30;;;;;;;;;;;14.40;99.90;;;;;;4999340;28;20297;-79
2021/10/11 16:07:55;;;;;;;;;;;14.40;99.90;;;;;;5018325;28;19914;-79
2021/10/11 16:10:21;;;;;;;;;;;14.40;99.90;;;;;;5015753;28;19920;-79
2021/10/11 16:12:46;;;;;;;;;;;14.30;99.90;;;;;;5016741;28;19924;-77
2021/10/11 16:15:12;;;;;;;;;;;14.30;99.90;;;;;;5003374;28;19916;-79
2021/10/11 16:17:38;;;;;;;;;;;14.30;99.90;;;;;;5019975;28;19917;-78
2021/10/11 16:20:08;;;;;;;;;;;14.20;99.90;;;;;;5002525;28;19956;-79
2021/10/11 16:22:34;;;;;;;;;;;14.20;99.90;;;;;;5001679;28;19960;-79
2021/10/11 16:24:59;;;;;;;;;;;14.10;99.90;;;;;;5001877;28;19910;-79
2021/10/11 16:27:25;;;;;;;;;;;14.00;99.90;;;;;;5018816;28;20398;-79
2021/10/11 16:29:50;;;;;;;;;;;14.00;99.90;;;;;;5033273;28;19913;-79
2021/10/11 16:32:16;;;;;;;;;;;13.90;99.90;;;;;;5009795;28;19957;-79
2021/10/11 16:34:41;;;;;;;;;;;13.90;99.90;;;;;;5005735;28;19973;-78
2021/10/11 16:37:07;;;;;;;;;;;13.90;99.90;;;;;;5006210;28;19917;-79